sensor_id;sensor_type;location;lat;lon;timestamp;temperature;humidity
17565;DHT22;62994;52.126;5.596;2022-09-21T00:00:26;11.90;99.90
17565;DHT22;62994;52.126;5.596;2022-09-21T00:02:55;11.80;99.90
17565;DHT22;62994;52.126;5.596;2022-09-21T00:05:24;11.90;99.90
17565;DHT22;62994;52.126;5.596;2022-09-21T00:07:51;11.90;99.90
17565;DHT22;62994;52.126;5.596;2022-09-21T00:10:19;11.80;99.90
17565;DHT22;62994;52.126;5.596;2022-09-21T00:12:47;11.70;99.90
17565;DHT22;62994;52.126;5.596;2022-09-21T00:15:15;11.60;99.90
17565;DHT22;62994;52.126;5.596;2022-09-21T00:17:44;11.60;99.90
17565;DHT22;62994;52.126;5.596;2022-09-21T00:20:12;11.50;99.90
17565;DHT22;62994;52.126;5.596;2022-09-21T00:22:41;11.40;99.90
17565;DHT22;62994;52.126;5.596;2022-09-21T00:25:09;11.30;99.90
17565;DHT22;62994;52.126;5.596;2022-09-21T00:27:36;11.30;99.90
17565;DHT22;62994;52.126;5.596;2022-09-21T00:30:05;11.30;99.90
17565;DHT22;62994;52.126;5.596;2022-09-21T00:32:34;11.20;99.90
17565;DHT22;62994;52.126;5.596;2022-09-21T00:35:02;11.20;99.90
17565;DHT22;62994;52.126;5.596;2022-09-21T00:37:31;11.20;99.90
17565;DHT22;62994;52.126;5.596;2022-09-21T00:40:00;11.10;99.90
17565;DHT22;62994;52.126;5.596;2022-09-21T00:42:29;11.00;99.90
17565;DHT22;62994;52.126;5.596;2022-09-21T00:44:57;11.00;99.90
17565;DHT22;62994;52.126;5.596;2022-09-21T00:47:27;11.00;99.90
17565;DHT22;62994;52.126;5.596;2022-09-21T00:49:58;11.00;99.90
17565;DHT22;62994;52.126;5.596;2022-09-21T00:52:28;10.90;99.90
17565;DHT22;62994;52.126;5.596;2022-09-21T00:55:03;10.90;99.90
17565;DHT22;62994;52.126;5.596;2022-09-21T00:57:32;10.80;99.90
17565;DHT22;62994;52.126;5.596;2022-09-21T01:00:03;10.80;99.90
17565;DHT22;62994;52.126;5.596;2022-09-21T01:02:30;10.80;99.90
17565;DHT22;62994;52.126;5.596;2022-09-21T01:04:59;10.70;99.90
17565;DHT22;62994;52.126;5.596;2022-09-21T01:07:30;10.70;99.90
17565;DHT22;62994;52.126;5.596;2022-09-21T01:10:03;10.70;99.90
17565;DHT22;62994;52.126;5.596;2022-09-21T01:12:45;10.60;99.90
17565;DHT22;62994;52.126;5.596;2022-09-21T01:15:27;10.60;99.90
17565;DHT22;62994;52.126;5.596;2022-09-21T01:18:03;10.60;99.90
17565;DHT22;62994;52.126;5.596;2022-09-21T01:21:00;10.50;99.90
17565;DHT22;62994;52.126;5.596;2022-09-21T01:23:48;10.50;99.90
17565;DHT22;62994;52.126;5.596;2022-09-21T01:26:26;10.40;99.90
17565;DHT22;62994;52.126;5.596;2022-09-21T01:29:11;10.40;99.90
17565;DHT22;62994;52.126;5.596;2022-09-21T01:31:43;10.30;99.90
17565;DHT22;62994;52.126;5.596;2022-09-21T01:34:21;10.30;99.90
17565;DHT22;62994;52.126;5.596;2022-09-21T01:36:49;10.30;99.90
17565;DHT22;62994;52.126;5.596;2022-09-21T01:39:18;10.20;99.90
17565;DHT22;62994;52.126;5.596;2022-09-21T01:41:48;10.20;99.90
17565;DHT22;62994;52.126;5.596;2022-09-21T01:44:20;10.10;99.90
17565;DHT22;62994;52.126;5.596;2022-09-21T01:46:49;10.10;99.90
17565;DHT22;62994;52.126;5.596;2022-09-21T01:49:22;10.10;99.90
17565;DHT22;62994;52.126;5.596;2022-09-21T01:51:54;10.00;99.90
17565;DHT22;62994;52.126;5.596;2022-09-21T01:54:27;10.00;99.90
17565;DHT22;62994;52.126;5.596;2022-09-21T01:56:58;10.00;99.90
17565;DHT22;62994;52.126;5.596;2022-09-21T01:59:33;10.00;99.90
17565;DHT22;62994;52.126;5.596;2022-09-21T02:02:07;9.90;99.90
17565;DHT22;62994;52.126;5.596;2022-09-21T02:04:35;9.90;99.90
17565;DHT22;62994;52.126;5.596;2022-09-21T02:07:03;9.90;99.90
17565;DHT22;62994;52.126;5.596;2022-09-21T02:09:30;9.80;99.90
17565;DHT22;62994;52.126;5.596;2022-09-21T02:11:58;9.80;99.90
17565;DHT22;62994;52.126;5.596;2022-09-21T02:14:25;9.80;99.90
17565;DHT22;62994;52.126;5.596;2022-09-21T02:17:02;9.80;99.90
17565;DHT22;62994;52.126;5.596;2022-09-21T02:19:38;9.80;99.90
17565;DHT22;62994;52.126;5.596;2022-09-21T02:22:12;9.80;99.90
17565;DHT22;62994;52.126;5.596;2022-09-21T02:24:43;9.70;99.90
17565;DHT22;62994;52.126;5.596;2022-09-21T02:27:18;9.70;99.90
17565;DHT22;62994;52.126;5.596;2022-09-21T02:29:53;9.70;99.90
17565;DHT22;62994;52.126;5.596;2022-09-21T02:32:30;9.60;99.90
17565;DHT22;62994;52.126;5.596;2022-09-21T02:35:02;9.60;99.90
17565;DHT22;62994;52.126;5.596;2022-09-21T02:37:35;9.60;99.90
17565;DHT22;62994;52.126;5.596;2022-09-21T02:40:09;9.60;99.90
17565;DHT22;62994;52.126;5.596;2022-09-21T02:42:43;9.50;99.90
17565;DHT22;62994;52.126;5.596;2022-09-21T02:45:16;9.50;99.90
17565;DHT22;62994;52.126;5.596;2022-09-21T02:47:50;9.50;99.90
17565;DHT22;62994;52.126;5.596;2022-09-21T02:50:23;9.50;99.90
17565;DHT22;62994;52.126;5.596;2022-09-21T02:52:53;9.40;99.90
17565;DHT22;62994;52.126;5.596;2022-09-21T02:55:21;9.40;99.90
17565;DHT22;62994;52.126;5.596;2022-09-21T02:57:49;9.40;99.90
17565;DHT22;62994;52.126;5.596;2022-09-21T03:00:16;9.40;99.90
17565;DHT22;62994;52.126;5.596;2022-09-21T03:02:44;9.40;99.90
17565;DHT22;62994;52.126;5.596;2022-09-21T03:05:13;9.30;99.90
17565;DHT22;62994;52.126;5.596;2022-09-21T03:07:40;9.30;99.90
17565;DHT22;62994;52.126;5.596;2022-09-21T03:10:08;9.30;99.90
17565;DHT22;62994;52.126;5.596;2022-09-21T03:12:35;9.20;99.90
17565;DHT22;62994;52.126;5.596;2022-09-21T03:15:02;9.20;99.90
17565;DHT22;62994;52.126;5.596;2022-09-21T03:17:29;9.20;99.90
17565;DHT22;62994;52.126;5.596;2022-09-21T03:19:56;9.20;99.90
17565;DHT22;62994;52.126;5.596;2022-09-21T03:22:24;9.20;99.90
17565;DHT22;62994;52.126;5.596;2022-09-21T03:24:52;9.10;99.90
17565;DHT22;62994;52.126;5.596;2022-09-21T03:27:22;9.10;99.90
17565;DHT22;62994;52.126;5.596;2022-09-21T03:29:49;9.10;99.90
17565;DHT22;62994;52.126;5.596;2022-09-21T03:32:17;9.10;99.90
17565;DHT22;62994;52.126;5.596;2022-09-21T03:34:43;9.10;99.90
17565;DHT22;62994;52.126;5.596;2022-09-21T03:37:11;9.00;99.90
17565;DHT22;62994;52.126;5.596;2022-09-21T03:39:39;9.00;99.90
17565;DHT22;62994;52.126;5.596;2022-09-21T03:42:06;9.00;99.90
17565;DHT22;62994;52.126;5.596;2022-09-21T03:44:34;9.00;99.90
17565;DHT22;62994;52.126;5.596;2022-09-21T03:47:02;9.00;99.90
17565;DHT22;62994;52.126;5.596;2022-09-21T03:49:31;8.90;99.90
17565;DHT22;62994;52.126;5.596;2022-09-21T03:51:58;8.90;99.90
17565;DHT22;62994;52.126;5.596;2022-09-21T03:54:25;8.80;99.90
17565;DHT22;62994;52.126;5.596;2022-09-21T03:56:53;8.80;99.90
17565;DHT22;62994;52.126;5.596;2022-09-21T03:59:20;8.80;99.90
17565;DHT22;62994;52.126;5.596;2022-09-21T04:01:47;8.80;99.90
17565;DHT22;62994;52.126;5.596;2022-09-21T04:04:14;8.70;99.90
17565;DHT22;62994;52.126;5.596;2022-09-21T04:06:42;8.70;99.90
17565;DHT22;62994;52.126;5.596;2022-09-21T04:09:10;8.70;99.90
17565;DHT22;62994;52.126;5.596;2022-09-21T04:11:37;8.70;99.90
17565;DHT22;62994;52.126;5.596;2022-09-21T04:14:05;8.70;99.90
17565;DHT22;62994;52.126;5.596;2022-09-21T04:16:32;8.60;99.90
17565;DHT22;62994;52.126;5.596;2022-09-21T04:18:59;8.60;99.90
17565;DHT22;62994;52.126;5.596;2022-09-21T04:21:26;8.60;99.90
17565;DHT22;62994;52.126;5.596;2022-09-21T04:23:53;8.60;99.90
17565;DHT22;62994;52.126;5.596;2022-09-21T04:26:21;8.70;99.90
17565;DHT22;62994;52.126;5.596;2022-09-21T04:28:49;8.70;99.90
17565;DHT22;62994;52.126;5.596;2022-09-21T04:31:18;8.70;99.90
17565;DHT22;62994;52.126;5.596;2022-09-21T04:33:47;8.70;99.90
17565;DHT22;62994;52.126;5.596;2022-09-21T04:36:15;8.70;99.90
17565;DHT22;62994;52.126;5.596;2022-09-21T04:38:42;8.60;99.90
17565;DHT22;62994;52.126;5.596;2022-09-21T04:41:09;8.50;99.90
17565;DHT22;62994;52.126;5.596;2022-09-21T04:43:36;8.50;99.90
17565;DHT22;62994;52.126;5.596;2022-09-21T04:46:04;8.40;99.90
17565;DHT22;62994;52.126;5.596;2022-09-21T04:48:33;8.40;99.90
17565;DHT22;62994;52.126;5.596;2022-09-21T04:51:00;8.40;99.90
17565;DHT22;62994;52.126;5.596;2022-09-21T04:53:27;8.40;99.90
17565;DHT22;62994;52.126;5.596;2022-09-21T04:55:54;8.30;99.90
17565;DHT22;62994;52.126;5.596;2022-09-21T04:58:21;8.30;99.90
17565;DHT22;62994;52.126;5.596;2022-09-21T05:00:49;8.20;99.90
17565;DHT22;62994;52.126;5.596;2022-09-21T05:03:16;8.20;99.90
17565;DHT22;62994;52.126;5.596;2022-09-21T05:05:47;8.20;99.90
17565;DHT22;62994;52.126;5.596;2022-09-21T05:08:14;8.10;99.90
17565;DHT22;62994;52.126;5.596;2022-09-21T05:10:41;8.20;99.90
17565;DHT22;62994;52.126;5.596;2022-09-21T05:13:07;8.20;99.90
17565;DHT22;62994;52.126;5.596;2022-09-21T05:15:36;8.20;99.90
17565;DHT22;62994;52.126;5.596;2022-09-21T05:18:04;8.10;99.90
17565;DHT22;62994;52.126;5.596;2022-09-21T05:20:31;8.10;99.90
17565;DHT22;62994;52.126;5.596;2022-09-21T05:23:01;8.10;99.90
17565;DHT22;62994;52.126;5.596;2022-09-21T05:25:27;8.00;99.90
17565;DHT22;62994;52.126;5.596;2022-09-21T05:27:55;8.00;99.90
17565;DHT22;62994;52.126;5.596;2022-09-21T05:30:22;8.00;99.90
17565;DHT22;62994;52.126;5.596;2022-09-21T05:32:55;7.90;99.90
17565;DHT22;62994;52.126;5.596;2022-09-21T05:35:28;8.00;99.90
17565;DHT22;62994;52.126;5.596;2022-09-21T05:38:02;8.00;99.90
17565;DHT22;62994;52.126;5.596;2022-09-21T05:40:31;8.00;99.90
17565;DHT22;62994;52.126;5.596;2022-09-21T05:42:59;8.00;99.90
17565;DHT22;62994;52.126;5.596;2022-09-21T05:45:26;8.00;99.90
17565;DHT22;62994;52.126;5.596;2022-09-21T05:48:00;8.00;99.90
17565;DHT22;62994;52.126;5.596;2022-09-21T05:50:40;8.00;99.90
17565;DHT22;62994;52.126;5.596;2022-09-21T05:53:25;8.00;99.90
17565;DHT22;62994;52.126;5.596;2022-09-21T05:55:57;8.00;99.90
17565;DHT22;62994;52.126;5.596;2022-09-21T05:58:33;8.00;99.90
17565;DHT22;62994;52.126;5.596;2022-09-21T06:01:14;8.00;99.90
17565;DHT22;62994;52.126;5.596;2022-09-21T06:03:46;8.10;99.90
17565;DHT22;62994;52.126;5.596;2022-09-21T06:06:15;8.10;99.90
17565;DHT22;62994;52.126;5.596;2022-09-21T06:08:43;8.20;99.90
17565;DHT22;62994;52.126;5.596;2022-09-21T06:11:10;8.20;99.90
17565;DHT22;62994;52.126;5.596;2022-09-21T06:13:37;8.20;99.90
17565;DHT22;62994;52.126;5.596;2022-09-21T06:16:06;8.30;99.90
17565;DHT22;62994;52.126;5.596;2022-09-21T06:18:36;8.30;99.90
17565;DHT22;62994;52.126;5.596;2022-09-21T06:21:04;8.30;99.90
17565;DHT22;62994;52.126;5.596;2022-09-21T06:23:31;8.40;99.90
17565;DHT22;62994;52.126;5.596;2022-09-21T06:25:59;8.40;99.90
17565;DHT22;62994;52.126;5.596;2022-09-21T06:28:26;8.50;99.90
17565;DHT22;62994;52.126;5.596;2022-09-21T06:30:55;8.50;99.90
17565;DHT22;62994;52.126;5.596;2022-09-21T06:33:22;8.50;99.90
17565;DHT22;62994;52.126;5.596;2022-09-21T06:35:53;8.70;99.90
17565;DHT22;62994;52.126;5.596;2022-09-21T06:38:20;8.80;99.90
17565;DHT22;62994;52.126;5.596;2022-09-21T06:40:48;8.80;99.90
17565;DHT22;62994;52.126;5.596;2022-09-21T06:43:16;9.00;99.90
17565;DHT22;62994;52.126;5.596;2022-09-21T06:45:51;9.10;99.90
17565;DHT22;62994;52.126;5.596;2022-09-21T06:48:18;9.20;99.90
17565;DHT22;62994;52.126;5.596;2022-09-21T06:50:45;9.30;99.90
17565;DHT22;62994;52.126;5.596;2022-09-21T06:53:12;9.40;99.90
17565;DHT22;62994;52.126;5.596;2022-09-21T06:55:39;9.50;99.90
17565;DHT22;62994;52.126;5.596;2022-09-21T06:58:06;9.60;99.90
17565;DHT22;62994;52.126;5.596;2022-09-21T07:00:34;9.70;99.90
17565;DHT22;62994;52.126;5.596;2022-09-21T07:03:01;9.80;99.90
17565;DHT22;62994;52.126;5.596;2022-09-21T07:05:28;9.90;99.90
17565;DHT22;62994;52.126;5.596;2022-09-21T07:08:01;9.90;99.90
17565;DHT22;62994;52.126;5.596;2022-09-21T07:10:28;9.90;99.90
17565;DHT22;62994;52.126;5.596;2022-09-21T07:12:55;10.20;99.90
17565;DHT22;62994;52.126;5.596;2022-09-21T07:15:22;10.20;99.90
17565;DHT22;62994;52.126;5.596;2022-09-21T07:17:53;10.40;99.90
17565;DHT22;62994;52.126;5.596;2022-09-21T07:20:20;10.40;99.90
17565;DHT22;62994;52.126;5.596;2022-09-21T07:22:46;10.50;99.90
17565;DHT22;62994;52.126;5.596;2022-09-21T07:25:13;10.70;99.90
17565;DHT22;62994;52.126;5.596;2022-09-21T07:27:40;10.80;99.90
17565;DHT22;62994;52.126;5.596;2022-09-21T07:30:08;11.00;99.90
17565;DHT22;62994;52.126;5.596;2022-09-21T07:32:35;11.00;99.90
17565;DHT22;62994;52.126;5.596;2022-09-21T07:35:05;11.20;99.90
17565;DHT22;62994;52.126;5.596;2022-09-21T07:37:32;11.40;99.90
17565;DHT22;62994;52.126;5.596;2022-09-21T07:39:59;11.50;99.90
17565;DHT22;62994;52.126;5.596;2022-09-21T07:42:28;11.60;99.90
17565;DHT22;62994;52.126;5.596;2022-09-21T07:44:55;11.80;99.90
17565;DHT22;62994;52.126;5.596;2022-09-21T07:47:24;11.80;99.90
17565;DHT22;62994;52.126;5.596;2022-09-21T07:49:52;12.00;99.90
17565;DHT22;62994;52.126;5.596;2022-09-21T07:52:21;12.20;99.90
17565;DHT22;62994;52.126;5.596;2022-09-21T07:54:48;12.30;99.90
17565;DHT22;62994;52.126;5.596;2022-09-21T07:57:15;12.50;99.90
17565;DHT22;62994;52.126;5.596;2022-09-21T08:00:03;12.60;99.90
17565;DHT22;62994;52.126;5.596;2022-09-21T08:02:30;12.80;99.90
17565;DHT22;62994;52.126;5.596;2022-09-21T08:04:57;12.90;99.90
17565;DHT22;62994;52.126;5.596;2022-09-21T08:07:25;13.00;99.90
17565;DHT22;62994;52.126;5.596;2022-09-21T08:09:53;13.20;99.90
17565;DHT22;62994;52.126;5.596;2022-09-21T08:12:19;13.30;99.90
17565;DHT22;62994;52.126;5.596;2022-09-21T08:14:47;13.40;99.90
17565;DHT22;62994;52.126;5.596;2022-09-21T08:17:14;13.60;99.90
17565;DHT22;62994;52.126;5.596;2022-09-21T08:19:41;13.70;99.90
17565;DHT22;62994;52.126;5.596;2022-09-21T08:22:08;13.80;99.90
17565;DHT22;62994;52.126;5.596;2022-09-21T08:24:38;13.90;99.90
17565;DHT22;62994;52.126;5.596;2022-09-21T08:27:09;13.90;99.90
17565;DHT22;62994;52.126;5.596;2022-09-21T08:29:35;14.00;99.90
17565;DHT22;62994;52.126;5.596;2022-09-21T08:32:04;14.10;99.90
17565;DHT22;62994;52.126;5.596;2022-09-21T08:34:32;14.20;99.90
17565;DHT22;62994;52.126;5.596;2022-09-21T08:36:59;14.30;99.90
17565;DHT22;62994;52.126;5.596;2022-09-21T08:39:26;14.30;99.90
17565;DHT22;62994;52.126;5.596;2022-09-21T08:42:17;14.40;99.90
17565;DHT22;62994;52.126;5.596;2022-09-21T08:44:51;14.50;99.90
17565;DHT22;62994;52.126;5.596;2022-09-21T08:47:32;14.60;99.90
17565;DHT22;62994;52.126;5.596;2022-09-21T08:50:02;14.80;99.90
17565;DHT22;62994;52.126;5.596;2022-09-21T08:52:30;14.90;99.90
17565;DHT22;62994;52.126;5.596;2022-09-21T08:55:00;14.90;99.90
17565;DHT22;62994;52.126;5.596;2022-09-21T08:57:31;15.00;99.90
17565;DHT22;62994;52.126;5.596;2022-09-21T09:00:00;15.10;99.90
17565;DHT22;62994;52.126;5.596;2022-09-21T09:02:40;15.20;99.90
17565;DHT22;62994;52.126;5.596;2022-09-21T09:05:23;15.20;99.90
17565;DHT22;62994;52.126;5.596;2022-09-21T09:08:25;15.20;99.90
17565;DHT22;62994;52.126;5.596;2022-09-21T09:11:08;15.30;99.90
17565;DHT22;62994;52.126;5.596;2022-09-21T09:14:13;15.50;99.90
17565;DHT22;62994;52.126;5.596;2022-09-21T09:16:50;15.60;99.90
17565;DHT22;62994;52.126;5.596;2022-09-21T09:19:22;15.70;99.90
17565;DHT22;62994;52.126;5.596;2022-09-21T09:21:50;15.80;99.90
17565;DHT22;62994;52.126;5.596;2022-09-21T09:24:30;16.00;99.90
17565;DHT22;62994;52.126;5.596;2022-09-21T09:27:03;16.00;99.90
17565;DHT22;62994;52.126;5.596;2022-09-21T09:29:39;16.10;99.90
17565;DHT22;62994;52.126;5.596;2022-09-21T09:32:14;16.20;99.90
17565;DHT22;62994;52.126;5.596;2022-09-21T09:34:44;16.20;99.90
17565;DHT22;62994;52.126;5.596;2022-09-21T09:37:15;16.30;99.90
17565;DHT22;62994;52.126;5.596;2022-09-21T09:39:50;16.40;99.90
17565;DHT22;62994;52.126;5.596;2022-09-21T09:42:41;16.40;99.90
17565;DHT22;62994;52.126;5.596;2022-09-21T09:45:21;16.50;99.90
17565;DHT22;62994;52.126;5.596;2022-09-21T09:48:01;16.60;99.90
17565;DHT22;62994;52.126;5.596;2022-09-21T09:50:33;16.60;99.90
17565;DHT22;62994;52.126;5.596;2022-09-21T09:53:04;16.70;99.90
17565;DHT22;62994;52.126;5.596;2022-09-21T09:55:36;16.80;99.90
17565;DHT22;62994;52.126;5.596;2022-09-21T09:58:04;16.80;99.90
17565;DHT22;62994;52.126;5.596;2022-09-21T10:00:34;16.80;99.90
17565;DHT22;62994;52.126;5.596;2022-09-21T10:03:01;17.00;99.90
17565;DHT22;62994;52.126;5.596;2022-09-21T10:05:40;16.90;99.90
17565;DHT22;62994;52.126;5.596;2022-09-21T10:08:30;17.10;99.90
17565;DHT22;62994;52.126;5.596;2022-09-21T10:11:06;17.10;99.90
17565;DHT22;62994;52.126;5.596;2022-09-21T10:13:35;17.20;99.90
17565;DHT22;62994;52.126;5.596;2022-09-21T10:16:05;17.30;99.90
17565;DHT22;62994;52.126;5.596;2022-09-21T10:18:38;17.40;99.90
17565;DHT22;62994;52.126;5.596;2022-09-21T10:21:07;17.50;99.90
17565;DHT22;62994;52.126;5.596;2022-09-21T10:23:35;17.60;99.90
17565;DHT22;62994;52.126;5.596;2022-09-21T10:26:06;17.60;99.90
17565;DHT22;62994;52.126;5.596;2022-09-21T10:28:34;17.70;99.90
17565;DHT22;62994;52.126;5.596;2022-09-21T10:31:18;17.80;99.90
17565;DHT22;62994;52.126;5.596;2022-09-21T10:33:51;17.80;99.90
17565;DHT22;62994;52.126;5.596;2022-09-21T10:36:28;17.90;99.90
17565;DHT22;62994;52.126;5.596;2022-09-21T10:38:57;18.10;99.90
17565;DHT22;62994;52.126;5.596;2022-09-21T10:41:36;18.30;99.90
17565;DHT22;62994;52.126;5.596;2022-09-21T10:44:04;18.60;99.90
17565;DHT22;62994;52.126;5.596;2022-09-21T10:46:38;18.70;99.90
17565;DHT22;62994;52.126;5.596;2022-09-21T10:49:14;18.80;99.90
17565;DHT22;62994;52.126;5.596;2022-09-21T10:51:44;18.90;99.90
17565;DHT22;62994;52.126;5.596;2022-09-21T10:54:16;18.90;99.90
17565;DHT22;62994;52.126;5.596;2022-09-21T10:56:56;19.10;99.90
17565;DHT22;62994;52.126;5.596;2022-09-21T10:59:26;19.30;99.90
17565;DHT22;62994;52.126;5.596;2022-09-21T11:01:57;19.50;99.90
17565;DHT22;62994;52.126;5.596;2022-09-21T11:04:35;19.60;99.90
17565;DHT22;62994;52.126;5.596;2022-09-21T11:07:12;19.80;99.90
17565;DHT22;62994;52.126;5.596;2022-09-21T11:09:47;19.90;99.90
17565;DHT22;62994;52.126;5.596;2022-09-21T11:12:47;20.10;99.90
17565;DHT22;62994;52.126;5.596;2022-09-21T11:15:22;20.40;99.90
17565;DHT22;62994;52.126;5.596;2022-09-21T11:18:01;20.70;99.90
17565;DHT22;62994;52.126;5.596;2022-09-21T11:20:38;21.00;99.90
17565;DHT22;62994;52.126;5.596;2022-09-21T11:23:19;21.20;99.90
17565;DHT22;62994;52.126;5.596;2022-09-21T11:25:55;21.50;99.90
17565;DHT22;62994;52.126;5.596;2022-09-21T11:28:27;21.70;99.90
17565;DHT22;62994;52.126;5.596;2022-09-21T11:34:06;22.30;99.90
17565;DHT22;62994;52.126;5.596;2022-09-21T11:36:45;22.80;99.90
17565;DHT22;62994;52.126;5.596;2022-09-21T11:39:25;23.20;99.90
17565;DHT22;62994;52.126;5.596;2022-09-21T11:42:09;23.50;99.90
17565;DHT22;62994;52.126;5.596;2022-09-21T11:44:48;23.90;99.90
17565;DHT22;62994;52.126;5.596;2022-09-21T11:47:43;24.50;99.90
17565;DHT22;62994;52.126;5.596;2022-09-21T11:50:32;25.00;99.90
17565;DHT22;62994;52.126;5.596;2022-09-21T11:56:13;25.40;99.90
17565;DHT22;62994;52.126;5.596;2022-09-21T11:58:46;25.70;99.90
17565;DHT22;62994;52.126;5.596;2022-09-21T12:01:28;25.90;99.90
17565;DHT22;62994;52.126;5.596;2022-09-21T12:04:08;26.00;99.90
17565;DHT22;62994;52.126;5.596;2022-09-21T12:06:49;26.60;99.90
17565;DHT22;62994;52.126;5.596;2022-09-21T12:09:48;28.30;99.90
17565;DHT22;62994;52.126;5.596;2022-09-21T12:12:20;29.40;99.90
17565;DHT22;62994;52.126;5.596;2022-09-21T12:14:56;29.70;99.90
17565;DHT22;62994;52.126;5.596;2022-09-21T12:17:33;29.80;99.90
17565;DHT22;62994;52.126;5.596;2022-09-21T12:20:11;29.40;99.90
17565;DHT22;62994;52.126;5.596;2022-09-21T12:22:44;29.20;99.90
17565;DHT22;62994;52.126;5.596;2022-09-21T12:25:14;29.10;99.90
17565;DHT22;62994;52.126;5.596;2022-09-21T12:27:47;29.30;99.90
17565;DHT22;62994;52.126;5.596;2022-09-21T12:30:16;29.20;99.90
17565;DHT22;62994;52.126;5.596;2022-09-21T12:32:50;29.50;99.90
17565;DHT22;62994;52.126;5.596;2022-09-21T12:35:25;29.80;99.90
17565;DHT22;62994;52.126;5.596;2022-09-21T12:37:58;29.90;99.90
17565;DHT22;62994;52.126;5.596;2022-09-21T12:40:32;30.30;99.90
17565;DHT22;62994;52.126;5.596;2022-09-21T12:43:07;31.00;99.90
17565;DHT22;62994;52.126;5.596;2022-09-21T12:45:40;31.70;99.90
17565;DHT22;62994;52.126;5.596;2022-09-21T12:48:23;32.10;99.90
17565;DHT22;62994;52.126;5.596;2022-09-21T12:50:55;32.00;99.90
17565;DHT22;62994;52.126;5.596;2022-09-21T12:53:27;32.00;99.90
17565;DHT22;62994;52.126;5.596;2022-09-21T12:55:58;32.20;99.30
17565;DHT22;62994;52.126;5.596;2022-09-21T12:58:40;32.40;99.60
17565;DHT22;62994;52.126;5.596;2022-09-21T13:01:17;32.50;98.70
17565;DHT22;62994;52.126;5.596;2022-09-21T13:03:56;32.80;96.70
17565;DHT22;62994;52.126;5.596;2022-09-21T13:07:00;33.00;97.00
17565;DHT22;62994;52.126;5.596;2022-09-21T13:09:36;32.90;97.20
17565;DHT22;62994;52.126;5.596;2022-09-21T13:12:08;33.50;96.60
17565;DHT22;62994;52.126;5.596;2022-09-21T13:14:43;33.60;95.10
17565;DHT22;62994;52.126;5.596;2022-09-21T13:17:20;33.70;96.20
17565;DHT22;62994;52.126;5.596;2022-09-21T13:19:56;34.00;94.30
17565;DHT22;62994;52.126;5.596;2022-09-21T13:22:26;34.40;95.10
17565;DHT22;62994;52.126;5.596;2022-09-21T13:25:04;34.70;93.80
17565;DHT22;62994;52.126;5.596;2022-09-21T13:28:00;34.70;92.90
17565;DHT22;62994;52.126;5.596;2022-09-21T13:30:31;34.90;91.30
17565;DHT22;62994;52.126;5.596;2022-09-21T13:32:59;34.70;91.10
17565;DHT22;62994;52.126;5.596;2022-09-21T13:35:50;35.50;89.60
17565;DHT22;62994;52.126;5.596;2022-09-21T13:38:23;36.20;90.10
17565;DHT22;62994;52.126;5.596;2022-09-21T13:40:58;37.00;87.40
17565;DHT22;62994;52.126;5.596;2022-09-21T13:43:45;37.20;83.80
17565;DHT22;62994;52.126;5.596;2022-09-21T13:46:47;36.90;82.40
17565;DHT22;62994;52.126;5.596;2022-09-21T13:49:22;36.50;79.50
17565;DHT22;62994;52.126;5.596;2022-09-21T13:51:54;35.80;80.20
17565;DHT22;62994;52.126;5.596;2022-09-21T13:54:24;33.70;82.00
17565;DHT22;62994;52.126;5.596;2022-09-21T13:57:15;31.90;85.10
17565;DHT22;62994;52.126;5.596;2022-09-21T13:59:46;30.10;88.50
17565;DHT22;62994;52.126;5.596;2022-09-21T14:02:26;28.80;90.30
17565;DHT22;62994;52.126;5.596;2022-09-21T14:05:03;28.10;92.10
17565;DHT22;62994;52.126;5.596;2022-09-21T14:07:33;29.30;92.10
17565;DHT22;62994;52.126;5.596;2022-09-21T14:10:03;30.20;90.60
17565;DHT22;62994;52.126;5.596;2022-09-21T14:12:38;31.10;89.10
17565;DHT22;62994;52.126;5.596;2022-09-21T14:21:13;29.10;90.10
17565;DHT22;62994;52.126;5.596;2022-09-21T14:24:16;28.40;92.60
17565;DHT22;62994;52.126;5.596;2022-09-21T14:26:49;27.80;94.10
17565;DHT22;62994;52.126;5.596;2022-09-21T14:29:23;27.20;95.70
17565;DHT22;62994;52.126;5.596;2022-09-21T14:31:53;26.50;96.00
17565;DHT22;62994;52.126;5.596;2022-09-21T14:34:25;25.90;96.70
17565;DHT22;62994;52.126;5.596;2022-09-21T14:36:55;25.40;99.90
17565;DHT22;62994;52.126;5.596;2022-09-21T14:39:28;24.80;97.60
17565;DHT22;62994;52.126;5.596;2022-09-21T14:42:06;24.30;99.10
17565;DHT22;62994;52.126;5.596;2022-09-21T14:44:39;23.90;98.60
17565;DHT22;62994;52.126;5.596;2022-09-21T14:47:25;23.60;99.90
17565;DHT22;62994;52.126;5.596;2022-09-21T14:50:06;23.30;99.90
17565;DHT22;62994;52.126;5.596;2022-09-21T14:52:43;22.90;99.90
17565;DHT22;62994;52.126;5.596;2022-09-21T14:55:17;22.80;99.90
17565;DHT22;62994;52.126;5.596;2022-09-21T14:58:21;22.80;99.90
17565;DHT22;62994;52.126;5.596;2022-09-21T15:00:53;22.60;99.90
17565;DHT22;62994;52.126;5.596;2022-09-21T15:03:48;22.60;99.90
17565;DHT22;62994;52.126;5.596;2022-09-21T15:06:27;22.60;99.90
17565;DHT22;62994;52.126;5.596;2022-09-21T15:09:29;22.70;99.90
17565;DHT22;62994;52.126;5.596;2022-09-21T15:12:20;22.80;99.90
17565;DHT22;62994;52.126;5.596;2022-09-21T15:14:55;22.70;99.90
17565;DHT22;62994;52.126;5.596;2022-09-21T15:17:28;22.80;99.90
17565;DHT22;62994;52.126;5.596;2022-09-21T15:19:59;22.90;99.90
17565;DHT22;62994;52.126;5.596;2022-09-21T15:22:28;22.90;99.90
17565;DHT22;62994;52.126;5.596;2022-09-21T15:24:58;22.80;99.90
17565;DHT22;62994;52.126;5.596;2022-09-21T15:27:29;22.80;99.90
17565;DHT22;62994;52.126;5.596;2022-09-21T15:29:58;22.70;99.90
17565;DHT22;62994;52.126;5.596;2022-09-21T15:32:41;22.70;99.90
17565;DHT22;62994;52.126;5.596;2022-09-21T15:35:17;22.70;99.90
17565;DHT22;62994;52.126;5.596;2022-09-21T15:37:44;22.50;99.90
17565;DHT22;62994;52.126;5.596;2022-09-21T15:40:17;22.40;99.90
17565;DHT22;62994;52.126;5.596;2022-09-21T15:43:02;22.20;99.90
17565;DHT22;62994;52.126;5.596;2022-09-21T15:45:33;22.20;99.90
17565;DHT22;62994;52.126;5.596;2022-09-21T15:48:06;22.00;99.90
17565;DHT22;62994;52.126;5.596;2022-09-21T15:50:38;21.80;99.90
17565;DHT22;62994;52.126;5.596;2022-09-21T15:53:14;21.70;99.90
17565;DHT22;62994;52.126;5.596;2022-09-21T15:55:51;21.50;99.90
17565;DHT22;62994;52.126;5.596;2022-09-21T15:58:37;21.30;99.90
17565;DHT22;62994;52.126;5.596;2022-09-21T16:01:14;21.10;99.90
17565;DHT22;62994;52.126;5.596;2022-09-21T16:03:43;20.90;99.90
17565;DHT22;62994;52.126;5.596;2022-09-21T16:06:22;20.80;99.90
17565;DHT22;62994;52.126;5.596;2022-09-21T16:08:50;20.80;99.90
17565;DHT22;62994;52.126;5.596;2022-09-21T16:11:32;20.70;99.90
17565;DHT22;62994;52.126;5.596;2022-09-21T16:14:05;20.60;99.90
17565;DHT22;62994;52.126;5.596;2022-09-21T16:17:06;20.60;99.90
17565;DHT22;62994;52.126;5.596;2022-09-21T16:20:13;20.60;99.90
17565;DHT22;62994;52.126;5.596;2022-09-21T16:22:42;20.50;99.90